createdAt,value
2018-04-23T00:00:39.702Z,57.64
2018-04-23T00:01:39.690Z,57.26
2018-04-23T00:02:39.676Z,57.26
2018-04-23T00:03:39.678Z,57.26
2018-04-23T00:04:39.653Z,57.26
2018-04-23T00:05:39.640Z,57.35
2018-04-23T00:06:39.635Z,57.16
2018-04-23T00:07:39.613Z,57.26
2018-04-23T00:08:39.602Z,57.64
2018-04-23T00:09:39.599Z,57.45
2018-04-23T00:10:39.577Z,57.35
2018-04-23T00:11:39.564Z,57.26
2018-04-23T00:12:39.552Z,57.42
2018-04-23T00:13:39.540Z,57.45
2018-04-23T00:14:39.558Z,57.45
2018-04-23T00:15:39.515Z,57.42
2018-04-23T00:16:39.502Z,57.26
2018-04-23T00:17:39.489Z,57.26
2018-04-23T00:18:39.477Z,57.35
2018-04-23T00:19:39.464Z,57.23
2018-04-23T00:20:39.462Z,57.35
2018-04-23T00:21:39.439Z,57.45
2018-04-23T00:22:39.427Z,57.23
2018-04-23T00:23:39.412Z,57.45
2018-04-23T00:24:39.401Z,57.45
2018-04-23T00:25:39.403Z,57.42
2018-04-23T00:26:39.376Z,57.35
2018-04-23T00:27:39.364Z,57.32
2018-04-23T00:28:39.356Z,57.35
2018-04-23T00:29:39.337Z,57.35
2018-04-23T00:30:39.324Z,57.45
2018-04-23T00:31:39.323Z,57.32
2018-04-23T00:32:39.301Z,57.32
2018-04-23T00:33:39.286Z,57.26
2018-04-23T00:34:39.275Z,57.26
2018-04-23T00:35:39.261Z,57.35
2018-04-23T00:36:39.265Z,57.23
2018-04-23T00:37:39.237Z,57.26
2018-04-23T00:38:39.223Z,57.42
2018-04-23T00:39:39.212Z,57.23
2018-04-23T00:40:39.200Z,57.45
2018-04-23T00:41:39.188Z,57.42
2018-04-23T00:42:39.187Z,57.52
2018-04-23T00:43:39.161Z,57.52
2018-04-23T00:44:39.148Z,57.54
2018-04-23T00:45:39.136Z,57.74
2018-04-23T00:46:39.124Z,57.54
2018-04-23T00:47:39.127Z,57.54
2018-04-23T00:48:39.099Z,57.04
2018-04-23T00:49:39.086Z,57.62
2018-04-23T00:50:39.072Z,57.74
2018-04-23T00:51:39.063Z,57.64
2018-04-23T00:52:39.048Z,57.62
2018-04-23T00:53:39.047Z,57.06
2018-04-23T00:54:39.023Z,57.52
2018-04-23T00:55:39.011Z,57.54
2018-04-23T00:56:39.002Z,57.52
2018-04-23T00:57:38.985Z,57.52
2018-04-23T00:58:38.986Z,57.52
2018-04-23T00:59:38.960Z,57.71
2018-04-23T01:00:38.946Z,57.54
2018-04-23T01:01:38.934Z,57.54
2018-04-23T01:02:38.923Z,57.71
2018-04-23T01:03:38.909Z,57.62
2018-04-23T01:04:38.906Z,57.54
2018-04-23T01:05:38.884Z,57.62
2018-04-23T01:06:38.871Z,57.52
2018-04-23T01:07:38.859Z,57.06
2018-04-23T01:08:38.846Z,57.52
2018-04-23T01:09:38.856Z,57.52
2018-04-23T01:10:38.820Z,57.71
2018-04-23T01:11:38.808Z,57.54
2018-04-23T01:12:38.796Z,57.54
2018-04-23T01:13:38.783Z,56.96
2018-04-23T01:14:38.769Z,57.62
2018-04-23T01:15:38.768Z,57.35
2018-04-23T01:16:38.745Z,57.42
2018-04-23T01:17:38.734Z,57.42
2018-04-23T01:18:38.719Z,57.64
2018-04-23T01:19:38.707Z,57.62
2018-04-23T01:20:38.708Z,57.62
2018-04-23T01:21:38.683Z,57.62
2018-04-23T01:22:38.669Z,57.04
2018-04-23T01:23:38.657Z,57.62
2018-04-23T01:24:38.644Z,57.52
2018-04-23T01:25:38.633Z,57.52
2018-04-23T01:26:38.628Z,57.54
2018-04-23T01:27:38.606Z,57.52
2018-04-23T01:28:38.592Z,57.42
2018-04-23T01:29:38.582Z,57.62
2018-04-23T01:30:38.568Z,57.42
2018-04-23T01:31:38.574Z,56.87
2018-04-23T01:32:38.544Z,57.42
2018-04-23T01:33:38.531Z,57.42
2018-04-23T01:34:38.518Z,57.42
2018-04-23T01:35:38.505Z,57.62
2018-04-23T01:36:38.493Z,57.62
2018-04-23T01:37:38.494Z,57.42
2018-04-23T01:38:38.467Z,57.52
2018-04-23T01:39:38.455Z,57.62
2018-04-23T01:40:38.443Z,57.71
2018-04-23T01:41:38.430Z,57.62
2018-04-23T01:42:38.418Z,57.52
2018-04-23T01:43:38.415Z,57.64
2018-04-23T01:44:38.391Z,56.84
2018-04-23T01:45:38.379Z,57.42
2018-04-23T01:46:38.372Z,56.84
2018-04-23T01:47:38.353Z,57.52
2018-04-23T01:48:38.352Z,57.62
2018-04-23T01:49:38.328Z,56.94
2018-04-23T01:50:38.315Z,57.52
2018-04-23T01:51:38.304Z,57.62
2018-04-23T01:52:38.291Z,56.94
2018-04-23T01:53:38.293Z,57.71
2018-04-23T01:54:38.265Z,56.94
2018-04-23T01:55:38.251Z,56.94
2018-04-23T01:56:38.240Z,57.04
2018-04-23T01:57:38.228Z,57.32
2018-04-23T01:58:38.216Z,57.42
2018-04-23T01:59:38.217Z,57.62
2018-04-23T02:00:38.190Z,57.42
2018-04-23T02:01:38.179Z,57.52
2018-04-23T02:02:38.163Z,57.62
2018-04-23T02:03:38.152Z,57.42
2018-04-23T02:04:38.138Z,57.52
2018-04-23T02:05:38.138Z,57.52
2018-04-23T02:06:38.112Z,57.62
2018-04-23T02:07:38.102Z,57.52
2018-04-23T02:08:38.090Z,57.62
2018-04-23T02:09:38.079Z,57.62
2018-04-23T02:10:38.076Z,57.62
2018-04-23T02:11:38.054Z,57.52
2018-04-23T02:12:38.039Z,57.52
2018-04-23T02:13:38.026Z,57.52
2018-04-23T02:14:38.013Z,57.52
2018-04-23T02:15:38.009Z,57.32
2018-04-23T02:16:37.987Z,57.52
2018-04-23T02:17:37.974Z,57.62
2018-04-23T02:18:37.961Z,57.42
2018-04-23T02:19:37.950Z,57.62
2018-04-23T02:20:37.949Z,57.62
2018-04-23T02:21:37.924Z,57.62
2018-04-23T02:22:37.914Z,57.52
2018-04-23T02:23:37.941Z,57.35
2018-04-23T02:24:37.886Z,57.62
2018-04-23T02:25:37.874Z,57.64
2018-04-23T02:26:37.875Z,57.71
2018-04-23T02:27:37.848Z,57.14
2018-04-23T02:28:37.837Z,57.62
2018-04-23T02:29:37.824Z,57.71
2018-04-23T02:30:37.814Z,57.42
2018-04-23T02:31:37.798Z,57.52
2018-04-23T02:32:37.794Z,57.62
2018-04-23T02:33:37.774Z,57.42
2018-04-23T02:34:37.760Z,57.62
2018-04-23T02:35:37.747Z,57.42
2018-04-23T02:36:37.737Z,57.14
2018-04-23T02:37:37.734Z,57.32
2018-04-23T02:38:37.707Z,57.23
2018-04-23T02:39:37.697Z,57.32
2018-04-23T02:40:37.685Z,57.32
2018-04-23T02:41:37.672Z,57.32
2018-04-23T02:42:37.672Z,57.23
2018-04-23T02:43:37.647Z,57.32
2018-04-23T02:44:37.636Z,57.14
2018-04-23T02:45:37.622Z,57.14
2018-04-23T02:46:37.607Z,57.23
2018-04-23T02:47:37.596Z,57.32
2018-04-23T02:48:37.597Z,57.32
2018-04-23T02:49:37.571Z,57.32
2018-04-23T02:50:37.557Z,57.32
2018-04-23T02:51:37.544Z,57.32
2018-04-23T02:52:37.532Z,57.62
2018-04-23T02:53:37.520Z,57.42
2018-04-23T02:54:37.517Z,57.23
2018-04-23T02:55:37.495Z,57.32
2018-04-23T02:56:37.483Z,57.32
2018-04-23T02:57:37.469Z,57.32
2018-04-23T02:58:37.457Z,57.32
2018-04-23T02:59:37.454Z,57.52
2018-04-23T03:00:37.431Z,57.32
2018-04-23T03:01:37.419Z,57.23
2018-04-23T03:02:37.472Z,57.32
2018-04-23T03:03:37.394Z,57.32
2018-04-23T03:04:37.394Z,57.32
2018-04-23T03:05:37.367Z,57.23
2018-04-23T03:06:37.355Z,57.32
2018-04-23T03:07:37.343Z,57.32
2018-04-23T03:08:37.331Z,57.32
2018-04-23T03:09:37.317Z,57.23
2018-04-23T03:10:37.346Z,57.32
2018-04-23T03:11:37.294Z,57.23
2018-04-23T03:12:37.279Z,57.42
2018-04-23T03:13:37.267Z,57.32
2018-04-23T03:14:37.252Z,57.42
2018-04-23T03:15:37.240Z,57.32
2018-04-23T03:16:37.239Z,57.32
2018-04-23T03:17:37.216Z,57.23
2018-04-23T03:18:37.202Z,57.32
2018-04-23T03:19:37.194Z,57.42
2018-04-23T03:20:37.177Z,57.23
2018-04-23T03:21:37.601Z,57.42
2018-04-23T03:22:37.153Z,57.32
2018-04-23T03:23:37.139Z,57.42
2018-04-23T03:24:37.127Z,57.32
2018-04-23T03:25:37.121Z,57.32
2018-04-23T03:26:37.102Z,57.23
2018-04-23T03:27:37.104Z,57.42
2018-04-23T03:28:37.076Z,57.32
2018-04-23T03:29:37.064Z,57.32
2018-04-23T03:30:37.050Z,57.32
2018-04-23T03:31:37.039Z,57.42
2018-04-23T03:32:37.026Z,57.52
2018-04-23T03:33:37.024Z,57.52
2018-04-23T03:34:36.999Z,57.52
2018-04-23T03:35:36.987Z,57.42
2018-04-23T03:36:36.975Z,57.32
2018-04-23T03:37:36.962Z,57.32
2018-04-23T03:38:36.963Z,57.23
2018-04-23T03:39:36.943Z,57.42
2018-04-23T03:40:36.978Z,57.52
2018-04-23T03:41:36.912Z,57.32
2018-04-23T03:42:36.899Z,57.32
2018-04-23T03:43:36.889Z,57.32
2018-04-23T03:44:36.883Z,57.42
2018-04-23T03:45:36.865Z,57.42
2018-04-23T03:46:36.847Z,57.14
2018-04-23T03:47:36.834Z,57.52
2018-04-23T03:48:36.825Z,57.52
2018-04-23T03:49:36.842Z,57.42
2018-04-23T03:50:36.852Z,57.52
2018-04-23T03:51:36.785Z,57.42
2018-04-23T03:52:36.804Z,57.32
2018-04-23T03:53:36.759Z,57.42
2018-04-23T03:54:36.746Z,57.32
2018-04-23T03:55:36.746Z,57.32
2018-04-23T03:56:36.724Z,57.42
2018-04-23T03:57:36.777Z,57.52
2018-04-23T03:58:36.693Z,58.19
2018-04-23T03:59:36.683Z,57.90
2018-04-23T04:00:36.688Z,57.62
2018-04-23T04:01:36.659Z,57.71
2018-04-23T04:02:36.645Z,57.90
2018-04-23T04:03:36.631Z,57.90
2018-04-23T04:04:36.620Z,58.00
2018-04-23T04:05:36.608Z,57.90
2018-04-23T04:06:36.609Z,57.81
2018-04-23T04:07:36.581Z,58.00
2018-04-23T04:08:36.569Z,58.19
2018-04-23T04:09:36.556Z,58.19
2018-04-23T04:10:36.543Z,58.00
2018-04-23T04:11:36.543Z,58.39
2018-04-23T04:12:36.520Z,57.90
2018-04-23T04:13:36.505Z,58.29
2018-04-23T04:14:36.493Z,58.19
2018-04-23T04:15:36.480Z,57.93
2018-04-23T04:16:36.482Z,58.19
2018-04-23T04:17:36.455Z,58.00
2018-04-23T04:18:36.442Z,58.10
2018-04-23T04:19:36.436Z,59.16
2018-04-23T04:20:36.419Z,59.09
2018-04-23T04:21:36.409Z,58.39
2018-04-23T04:22:36.401Z,58.97
2018-04-23T04:23:36.384Z,59.06
2018-04-23T04:24:36.366Z,58.97
2018-04-23T04:25:36.354Z,59.35
2018-04-23T04:26:36.340Z,59.16
2018-04-23T04:27:36.343Z,59.16
2018-04-23T04:28:36.316Z,59.16
2018-04-23T04:29:36.303Z,58.97
2018-04-23T04:30:36.288Z,58.97
2018-04-23T04:31:36.277Z,58.87
2018-04-23T04:32:36.265Z,59.06
2018-04-23T04:33:36.264Z,59.06
2018-04-23T04:34:36.238Z,59.16
2018-04-23T04:35:36.285Z,58.87
2018-04-23T04:36:36.211Z,58.97
2018-04-23T04:37:36.201Z,59.06
2018-04-23T04:38:36.204Z,58.87
2018-04-23T04:39:36.175Z,58.68
2018-04-23T04:40:36.163Z,58.68
2018-04-23T04:41:36.151Z,58.39
2018-04-23T04:42:36.139Z,58.39
2018-04-23T04:43:36.127Z,58.77
2018-04-23T04:44:36.125Z,58.58
2018-04-23T04:45:36.100Z,58.29
2018-04-23T04:46:36.085Z,58.58
2018-04-23T04:47:36.075Z,58.68
2018-04-23T04:48:36.063Z,58.39
2018-04-23T04:49:36.082Z,58.48
2018-04-23T04:50:36.035Z,58.39
2018-04-23T04:51:36.029Z,58.00
2018-04-23T04:52:36.015Z,58.19
2018-04-23T04:53:35.999Z,58.19
2018-04-23T04:54:35.986Z,58.00
2018-04-23T04:55:35.983Z,58.29
2018-04-23T04:56:35.960Z,58.19
2018-04-23T04:57:35.947Z,58.10
2018-04-23T04:58:35.936Z,58.19
2018-04-23T04:59:35.922Z,58.10
2018-04-23T05:00:35.924Z,58.00
2018-04-23T05:01:35.897Z,58.19
2018-04-23T05:02:35.882Z,58.29
2018-04-23T05:03:35.870Z,58.19
2018-04-23T05:04:35.858Z,58.19
2018-04-23T05:05:35.846Z,58.19
2018-04-23T05:06:35.843Z,58.19
2018-04-23T05:07:35.821Z,58.19
2018-04-23T05:08:35.807Z,58.29
2018-04-23T05:09:35.794Z,58.10
2018-04-23T05:10:35.781Z,58.19
2018-04-23T05:11:35.791Z,58.10
2018-04-23T05:12:35.756Z,58.00
2018-04-23T05:13:35.744Z,58.19
2018-04-23T05:14:35.731Z,58.19
2018-04-23T05:15:35.717Z,58.10
2018-04-23T05:16:35.705Z,58.00
2018-04-23T05:17:35.707Z,58.00
2018-04-23T05:18:35.679Z,58.19
2018-04-23T05:19:35.668Z,57.90
2018-04-23T05:20:35.654Z,58.29
2018-04-23T05:21:35.643Z,58.19
2018-04-23T05:22:35.628Z,58.39
2018-04-23T05:23:35.696Z,58.29
2018-04-23T05:24:35.604Z,58.29
2018-04-23T05:25:35.591Z,58.19
2018-04-23T05:26:35.577Z,58.19
2018-04-23T05:27:35.565Z,58.10
2018-04-23T05:28:35.585Z,58.10
2018-04-23T05:29:35.541Z,58.10
2018-04-23T05:30:35.526Z,58.19
2018-04-23T05:31:35.515Z,58.19
2018-04-23T05:32:35.504Z,58.29
2018-04-23T05:33:35.490Z,58.19
2018-04-23T05:34:35.493Z,57.71
2018-04-23T05:35:35.464Z,57.52
2018-04-23T05:36:35.451Z,58.00
2018-04-23T05:37:35.465Z,58.00
2018-04-23T05:38:35.425Z,57.90
2018-04-23T05:39:35.413Z,57.71
2018-04-23T05:40:35.410Z,57.84
2018-04-23T05:41:35.388Z,57.93
2018-04-23T05:42:35.376Z,57.93
2018-04-23T05:43:35.362Z,57.35
2018-04-23T05:44:35.351Z,57.45
2018-04-23T05:45:35.353Z,57.06
2018-04-23T05:46:35.323Z,57.06
2018-04-23T05:47:35.315Z,57.26
2018-04-23T05:48:35.298Z,57.35
2018-04-23T05:49:35.286Z,57.26
2018-04-23T05:50:35.289Z,57.54
2018-04-23T05:51:35.262Z,57.35
2018-04-23T05:52:35.248Z,57.35
2018-04-23T05:53:35.236Z,57.35
2018-04-23T05:54:35.225Z,57.26
2018-04-23T05:55:35.207Z,57.35
2018-04-23T05:56:35.213Z,57.26
2018-04-23T05:57:35.185Z,57.45
2018-04-23T05:58:35.171Z,57.45
2018-04-23T05:59:35.158Z,57.54
2018-04-23T06:00:35.167Z,57.45
2018-04-23T06:01:35.134Z,57.35
2018-04-23T06:02:35.130Z,56.77
2018-04-23T06:03:35.108Z,56.96
2018-04-23T06:04:35.096Z,56.96
2018-04-23T06:05:35.087Z,56.96
2018-04-23T06:06:35.079Z,56.96
2018-04-23T06:07:35.070Z,57.06
2018-04-23T06:08:35.057Z,56.96
2018-04-23T06:09:35.043Z,57.16
2018-04-23T06:10:35.022Z,57.06
2018-04-23T06:11:35.008Z,57.16
2018-04-23T06:12:35.011Z,57.06
2018-04-23T06:13:34.983Z,56.96
2018-04-23T06:14:34.972Z,57.35
2018-04-23T06:15:34.956Z,57.45
2018-04-23T06:16:34.942Z,57.26
2018-04-23T06:17:34.929Z,57.16
2018-04-23T06:18:34.931Z,57.26
2018-04-23T06:19:34.908Z,56.77
2018-04-23T06:20:34.897Z,56.68
2018-04-23T06:21:34.884Z,56.77
2018-04-23T06:22:34.870Z,56.48
2018-04-23T06:23:34.858Z,56.39
2018-04-23T06:24:34.856Z,56.48
2018-04-23T06:25:34.833Z,56.68
2018-04-23T06:26:34.819Z,56.03
2018-04-23T06:27:34.813Z,56.20
2018-04-23T06:28:34.798Z,56.20
2018-04-23T06:29:34.796Z,56.58
2018-04-23T06:30:34.769Z,56.51
2018-04-23T06:31:34.758Z,56.51
2018-04-23T06:32:34.745Z,56.29
2018-04-23T06:33:34.730Z,55.93
2018-04-23T06:34:34.736Z,56.13
2018-04-23T06:35:34.707Z,56.03
2018-04-23T06:36:34.701Z,55.93
2018-04-23T06:37:34.683Z,56.13
2018-04-23T06:38:34.671Z,56.22
2018-04-23T06:39:34.658Z,56.22
2018-04-23T06:40:34.660Z,56.22
2018-04-23T06:41:34.633Z,56.61
2018-04-23T06:42:34.620Z,55.90
2018-04-23T06:43:34.610Z,56.29
2018-04-23T06:44:34.595Z,56.48
2018-04-23T06:45:34.585Z,56.48
2018-04-23T06:46:34.581Z,55.81
2018-04-23T06:47:34.559Z,56.61
2018-04-23T06:48:34.546Z,56.03
2018-04-23T06:49:34.536Z,56.22
2018-04-23T06:50:34.524Z,56.20
2018-04-23T06:51:34.520Z,56.32
2018-04-23T06:52:34.504Z,56.32
2018-04-23T06:53:34.486Z,56.22
2018-04-23T06:54:34.474Z,56.22
2018-04-23T06:55:34.459Z,56.22
2018-04-23T06:56:34.460Z,56.32
2018-04-23T06:57:34.436Z,56.32
2018-04-23T06:58:34.424Z,56.61
2018-04-23T06:59:34.412Z,56.22
2018-04-23T07:00:34.400Z,56.51
2018-04-23T07:01:34.398Z,56.61
2018-04-23T07:02:34.376Z,56.41
2018-04-23T07:03:34.365Z,56.32
2018-04-23T07:04:34.351Z,56.61
2018-04-23T07:05:34.339Z,56.61
2018-04-23T07:06:34.342Z,56.61
2018-04-23T07:07:34.315Z,55.83
2018-04-23T07:08:34.304Z,55.74
2018-04-23T07:09:34.290Z,55.93
2018-04-23T07:10:34.277Z,56.03
2018-04-23T07:11:34.266Z,55.83
2018-04-23T07:12:34.270Z,55.83
2018-04-23T07:13:34.243Z,55.93
2018-04-23T07:14:34.226Z,55.83
2018-04-23T07:15:34.216Z,55.83
2018-04-23T07:16:34.258Z,56.03
2018-04-23T07:17:34.191Z,55.83
2018-04-23T07:18:34.188Z,55.93
2018-04-23T07:19:34.168Z,55.83
2018-04-23T07:20:34.154Z,55.74
2018-04-23T07:21:34.141Z,55.83
2018-04-23T07:22:34.127Z,55.93
2018-04-23T07:23:34.127Z,56.03
2018-04-23T07:24:34.104Z,55.83
2018-04-23T07:25:34.094Z,55.93
2018-04-23T07:26:34.079Z,55.93
2018-04-23T07:27:34.067Z,55.93
2018-04-23T07:28:34.074Z,56.13
2018-04-23T07:29:34.045Z,56.51
2018-04-23T07:30:34.030Z,56.03
2018-04-23T07:31:34.018Z,56.68
2018-04-23T07:32:34.005Z,56.51
2018-04-23T07:33:34.003Z,56.51
2018-04-23T07:34:33.980Z,56.39
2018-04-23T07:35:33.971Z,56.48
2018-04-23T07:36:33.959Z,56.58
2018-04-23T07:37:33.944Z,56.29
2018-04-23T07:38:34.209Z,56.48
2018-04-23T07:39:33.920Z,56.51
2018-04-23T07:40:33.908Z,56.58
2018-04-23T07:41:33.895Z,56.39
2018-04-23T07:42:33.882Z,56.39
2018-04-23T07:43:33.871Z,56.58
2018-04-23T07:44:33.890Z,56.29
2018-04-23T07:45:33.845Z,56.29
2018-04-23T07:46:33.835Z,56.10
2018-04-23T07:47:33.822Z,56.29
2018-04-23T07:48:33.809Z,56.29
2018-04-23T07:49:33.795Z,56.10
2018-04-23T07:50:33.792Z,56.29
2018-04-23T07:51:33.772Z,56.29
2018-04-23T07:52:33.765Z,55.90
2018-04-23T07:53:33.748Z,56.29
2018-04-23T07:54:33.734Z,56.10
2018-04-23T07:55:33.731Z,56.20
2018-04-23T07:56:33.710Z,56.10
2018-04-23T07:57:33.697Z,56.20
2018-04-23T07:58:33.683Z,56.20
2018-04-23T07:59:33.670Z,56.10
2018-04-23T08:00:33.668Z,56.39
2018-04-23T08:01:33.648Z,56.29
2018-04-23T08:02:33.634Z,56.29
2018-04-23T08:03:33.621Z,56.20
2018-04-23T08:04:33.610Z,56.10
2018-04-23T08:05:33.607Z,56.29
2018-04-23T08:06:33.626Z,56.20
2018-04-23T08:07:33.570Z,56.29
2018-04-23T08:08:33.566Z,56.29
2018-04-23T08:09:33.546Z,56.10
2018-04-23T08:10:33.548Z,56.20
2018-04-23T08:11:33.520Z,56.29
2018-04-23T08:12:33.509Z,56.20
2018-04-23T08:13:33.497Z,56.29
2018-04-23T08:14:33.487Z,56.39
2018-04-23T08:15:33.470Z,56.39
2018-04-23T08:16:33.473Z,56.58
2018-04-23T08:17:33.447Z,56.58
2018-04-23T08:18:33.433Z,56.48
2018-04-23T08:19:33.421Z,56.00
2018-04-23T08:20:33.409Z,56.48
2018-04-23T08:21:33.397Z,56.39
2018-04-23T08:22:33.394Z,56.48
2018-04-23T08:23:33.372Z,56.39
2018-04-23T08:24:33.359Z,56.29
2018-04-23T08:25:33.348Z,56.29
2018-04-23T08:26:33.333Z,56.58
2018-04-23T08:27:33.331Z,56.20
2018-04-23T08:28:33.310Z,56.39
2018-04-23T08:29:33.296Z,56.29
2018-04-23T08:30:33.286Z,56.39
2018-04-23T08:31:33.270Z,56.39
2018-04-23T08:32:33.270Z,56.39
2018-04-23T08:33:33.247Z,56.58
2018-04-23T08:34:33.235Z,56.58
2018-04-23T08:35:33.222Z,56.39
2018-04-23T08:36:33.209Z,56.58
2018-04-23T08:37:33.245Z,56.48
2018-04-23T08:38:33.184Z,56.58
2018-04-23T08:39:33.223Z,56.48
2018-04-23T08:40:33.163Z,56.58
2018-04-23T08:41:33.149Z,56.58
2018-04-23T08:42:33.135Z,56.48
2018-04-23T08:43:33.175Z,56.39
2018-04-23T08:44:33.113Z,56.58
2018-04-23T08:45:33.099Z,56.20
2018-04-23T08:46:33.088Z,56.39
2018-04-23T08:47:33.080Z,56.48
2018-04-23T08:48:33.077Z,56.39
2018-04-23T08:49:33.048Z,56.58
2018-04-23T08:50:33.038Z,56.58
2018-04-23T08:51:33.024Z,56.48
2018-04-23T08:52:33.012Z,56.48
2018-04-23T08:53:33.000Z,56.58
2018-04-23T08:54:32.996Z,56.58
2018-04-23T08:55:32.979Z,55.90
2018-04-23T08:56:32.961Z,56.10
2018-04-23T08:57:32.951Z,56.58
2018-04-23T08:58:32.937Z,56.10
2018-04-23T08:59:32.934Z,55.90
2018-04-23T09:00:32.913Z,55.81
2018-04-23T09:01:32.965Z,55.90
2018-04-23T09:02:32.887Z,55.81
2018-04-23T09:03:32.877Z,55.71
2018-04-23T09:04:32.874Z,55.81
2018-04-23T09:05:32.851Z,55.81
2018-04-23T09:06:32.839Z,55.62
2018-04-23T09:07:32.829Z,55.62
2018-04-23T09:08:32.816Z,55.71
2018-04-23T09:09:32.815Z,55.71
2018-04-23T09:10:32.788Z,55.62
2018-04-23T09:11:32.775Z,56.00
2018-04-23T09:12:32.764Z,56.00
2018-04-23T09:13:32.751Z,55.81
2018-04-23T09:14:32.742Z,55.71
2018-04-23T09:15:32.734Z,55.90
2018-04-23T09:16:32.716Z,55.71
2018-04-23T09:17:32.701Z,55.90
2018-04-23T09:18:32.687Z,55.90
2018-04-23T09:19:32.678Z,55.71
2018-04-23T09:20:32.678Z,55.71
2018-04-23T09:21:32.651Z,55.71
2018-04-23T09:22:32.636Z,55.71
2018-04-23T09:23:32.626Z,55.81
2018-04-23T09:24:32.615Z,55.81
2018-04-23T09:25:32.601Z,55.71
2018-04-23T09:26:32.597Z,55.90
2018-04-23T09:27:32.575Z,56.00
2018-04-23T09:28:32.563Z,56.00
2018-04-23T09:29:32.551Z,55.71
2018-04-23T09:30:32.538Z,56.00
2018-04-23T09:31:32.540Z,55.71
2018-04-23T09:32:32.512Z,55.81
2018-04-23T09:33:32.500Z,55.81
2018-04-23T09:34:32.490Z,55.90
2018-04-23T09:35:32.476Z,55.81
2018-04-23T09:36:32.473Z,55.81
2018-04-23T09:37:32.448Z,56.00
2018-04-23T09:38:32.439Z,55.81
2018-04-23T09:39:32.426Z,55.90
2018-04-23T09:40:32.414Z,55.81
2018-04-23T09:41:32.422Z,55.71
2018-04-23T09:42:32.387Z,56.00
2018-04-23T09:43:32.375Z,55.81
2018-04-23T09:44:32.385Z,55.90
2018-04-23T09:45:32.352Z,56.10
2018-04-23T09:46:32.338Z,55.71
2018-04-23T09:47:32.336Z,55.62
2018-04-23T09:48:32.312Z,55.62
2018-04-23T09:49:32.299Z,55.23
2018-04-23T09:50:32.290Z,55.42
2018-04-23T09:51:32.275Z,55.35
2018-04-23T09:52:32.279Z,55.45
2018-04-23T09:53:32.251Z,55.35
2018-04-23T09:54:32.244Z,55.65
2018-04-23T09:55:32.227Z,55.33
2018-04-23T09:56:32.214Z,55.42
2018-04-23T09:57:32.202Z,55.35
2018-04-23T09:58:32.199Z,55.42
2018-04-23T09:59:32.175Z,55.71
2018-04-23T10:00:32.164Z,55.81
2018-04-23T10:01:32.154Z,55.81
2018-04-23T10:02:32.138Z,55.71
2018-04-23T10:03:32.136Z,56.10
2018-04-23T10:04:32.114Z,56.10
2018-04-23T10:05:32.102Z,56.20
2018-04-23T10:06:32.089Z,55.81
2018-04-23T10:07:32.075Z,56.10
2018-04-23T10:08:32.078Z,56.00
2018-04-23T10:09:32.052Z,56.10
2018-04-23T10:10:32.039Z,56.00
2018-04-23T10:11:32.028Z,55.71
2018-04-23T10:12:32.017Z,55.71
2018-04-23T10:13:32.016Z,55.81
2018-04-23T10:14:31.994Z,56.20
2018-04-23T10:15:31.977Z,55.90
2018-04-23T10:16:31.965Z,55.90
2018-04-23T10:17:31.957Z,56.00
2018-04-23T10:18:31.938Z,56.00
2018-04-23T10:19:31.942Z,56.10
2018-04-23T10:20:31.918Z,55.71
2018-04-23T10:21:31.903Z,55.71
2018-04-23T10:22:31.890Z,56.20
2018-04-23T10:23:31.884Z,56.10
2018-04-23T10:24:31.866Z,55.71
2018-04-23T10:25:31.865Z,55.81
2018-04-23T10:26:31.838Z,55.52
2018-04-23T10:27:31.828Z,55.81
2018-04-23T10:28:31.815Z,55.83
2018-04-23T10:29:31.804Z,55.33
2018-04-23T10:30:31.800Z,55.42
2018-04-23T10:31:31.779Z,55.42
2018-04-23T10:32:31.766Z,55.45
2018-04-23T10:33:31.755Z,55.35
2018-04-23T10:34:31.741Z,55.55
2018-04-23T10:35:31.739Z,55.62
2018-04-23T10:36:31.717Z,55.23
2018-04-23T10:37:31.704Z,55.23
2018-04-23T10:38:31.693Z,55.74
2018-04-23T10:39:31.678Z,55.35
2018-04-23T10:40:31.681Z,55.35
2018-04-23T10:41:31.655Z,55.16
2018-04-23T10:42:31.641Z,55.26
2018-04-23T10:43:31.630Z,55.42
2018-04-23T10:44:31.617Z,55.13
2018-04-23T10:45:31.668Z,55.16
2018-04-23T10:46:31.606Z,55.07
2018-04-23T10:47:31.584Z,55.26
2018-04-23T10:48:31.566Z,55.35
2018-04-23T10:49:31.554Z,55.65
2018-04-23T10:50:31.543Z,55.55
2018-04-23T10:51:31.530Z,55.93
2018-04-23T10:52:31.527Z,55.74
2018-04-23T10:53:31.506Z,55.55
2018-04-23T10:54:31.497Z,55.55
2018-04-23T10:55:31.481Z,55.55
2018-04-23T10:56:31.469Z,55.45
2018-04-23T10:57:31.468Z,55.45
2018-04-23T10:58:31.443Z,55.45
2018-04-23T10:59:31.436Z,55.65
2018-04-23T11:00:31.421Z,55.45
2018-04-23T11:01:31.405Z,55.55
2018-04-23T11:02:31.404Z,55.65
2018-04-23T11:03:31.380Z,55.45
2018-04-23T11:04:31.370Z,55.45
2018-04-23T11:05:31.357Z,55.45
2018-04-23T11:06:31.344Z,55.45
2018-04-23T11:07:31.364Z,55.45
2018-04-23T11:08:31.320Z,55.45
2018-04-23T11:09:31.311Z,55.45
2018-04-23T11:10:31.295Z,54.97
2018-04-23T11:11:31.284Z,55.74
2018-04-23T11:12:31.271Z,55.65
2018-04-23T11:13:31.272Z,55.65
2018-04-23T11:14:31.248Z,55.45
2018-04-23T11:15:31.234Z,55.35
2018-04-23T11:16:31.221Z,55.35
2018-04-23T11:17:31.207Z,55.35
2018-04-23T11:18:31.195Z,55.35
2018-04-23T11:19:31.194Z,55.26
2018-04-23T11:20:31.169Z,55.26
2018-04-23T11:21:31.158Z,55.26
2018-04-23T11:22:31.145Z,55.65
2018-04-23T11:23:31.134Z,55.45
2018-04-23T11:24:31.131Z,55.16
2018-04-23T11:25:31.110Z,54.87
2018-04-23T11:26:31.099Z,55.65
2018-04-23T11:27:31.089Z,55.83
2018-04-23T11:28:31.072Z,55.65
2018-04-23T11:29:31.076Z,55.35
2018-04-23T11:30:31.052Z,55.35
2018-04-23T11:31:31.033Z,55.74
2018-04-23T11:32:31.026Z,55.74
2018-04-23T11:33:31.011Z,55.45
2018-04-23T11:34:31.003Z,55.74
2018-04-23T11:35:30.999Z,55.35
2018-04-23T11:36:30.975Z,55.26
2018-04-23T11:37:30.963Z,55.45
2018-04-23T11:38:30.958Z,55.45
2018-04-23T11:39:30.936Z,55.74
2018-04-23T11:40:31.186Z,55.55
2018-04-23T11:41:30.912Z,55.74
2018-04-23T11:42:30.897Z,55.55
2018-04-23T11:43:30.885Z,55.65
2018-04-23T11:44:30.880Z,55.26
2018-04-23T11:45:30.862Z,55.74
2018-04-23T11:46:30.860Z,55.35
2018-04-23T11:47:30.837Z,55.65
2018-04-23T11:48:30.828Z,55.45
2018-04-23T11:49:30.813Z,55.55
2018-04-23T11:50:30.799Z,55.65
2018-04-23T11:51:30.796Z,55.65
2018-04-23T11:52:30.776Z,55.65
2018-04-23T11:53:30.766Z,55.65
2018-04-23T11:54:30.750Z,55.35
2018-04-23T11:55:30.739Z,55.74
2018-04-23T11:56:30.736Z,55.65
2018-04-23T11:57:30.718Z,54.87
2018-04-23T11:58:30.700Z,55.65
2018-04-23T11:59:30.688Z,54.87
2018-04-23T12:00:30.678Z,55.16
2018-04-23T12:01:30.680Z,55.16
2018-04-23T12:02:30.661Z,55.74
2018-04-23T12:03:30.640Z,55.74
2018-04-23T12:04:30.654Z,55.55
2018-04-23T12:05:30.614Z,55.45
2018-04-23T12:06:30.603Z,55.45
2018-04-23T12:07:30.601Z,55.83
2018-04-23T12:08:30.585Z,55.83
2018-04-23T12:09:30.565Z,55.26
2018-04-23T12:10:30.553Z,55.35
2018-04-23T12:11:30.541Z,56.03
2018-04-23T12:12:30.543Z,55.16
2018-04-23T12:13:30.516Z,54.87
2018-04-23T12:14:30.501Z,56.03
2018-04-23T12:15:30.491Z,55.26
2018-04-23T12:16:30.480Z,55.65
2018-04-23T12:17:30.465Z,55.55
2018-04-23T12:18:30.464Z,54.87
2018-04-23T12:19:30.442Z,55.74
2018-04-23T12:20:30.429Z,55.16
2018-04-23T12:21:30.417Z,54.97
2018-04-23T12:22:30.410Z,55.45
2018-04-23T12:23:30.402Z,55.55
2018-04-23T12:24:30.382Z,55.35
2018-04-23T12:25:30.367Z,55.55
2018-04-23T12:26:30.355Z,55.45
2018-04-23T12:27:30.343Z,55.26
2018-04-23T12:28:30.592Z,55.83
2018-04-23T12:29:30.318Z,55.35
2018-04-23T12:30:30.305Z,55.45
2018-04-23T12:31:30.294Z,55.35
2018-04-23T12:32:30.281Z,55.33
2018-04-23T12:33:30.268Z,55.35
2018-04-23T12:34:30.266Z,55.83
2018-04-23T12:35:30.244Z,55.35
2018-04-23T12:36:30.232Z,55.83
2018-04-23T12:37:30.221Z,55.83
2018-04-23T12:38:30.208Z,55.45
2018-04-23T12:39:30.207Z,55.35
2018-04-23T12:40:30.186Z,55.45
2018-04-23T12:41:30.170Z,55.35
2018-04-23T12:42:30.158Z,55.45
2018-04-23T12:43:30.160Z,55.45
2018-04-23T12:44:30.141Z,55.74
2018-04-23T12:45:30.120Z,55.45
2018-04-23T12:46:30.111Z,55.74
2018-04-23T12:47:30.098Z,55.35
2018-04-23T12:48:30.082Z,55.35
2018-04-23T12:49:30.087Z,55.93
2018-04-23T12:50:30.059Z,55.35
2018-04-23T12:51:30.047Z,55.35
2018-04-23T12:52:30.037Z,55.07